Godman Army Air Field
KFTK : now visible

Airfield :











YOU CAN JOIN US ON...

 
LOGIN :

Register | Disclaimer

   EN    FR    IT 

 









Legend :    VFR   Marginal VFR   IFR   Intensive IFR   Very Intensive IFR
Visi :
Ceiling :
>= 8 km
>= 3000ft
5 to 8 km
1000 to 3000 ft
1500m to 5 km
500 to 1000 ft
800 to 1500m
200 to 500 ft
< 800m
< 200 ft
Symbols :   Thunderstorms  Fog  Heavy snow  Heavy precipitations  Wind > 20 kt






- Airport Elevation : 756 ft


KFTK - Godman Army Air Field

CURRENT METAR :
  • 261156Z AUTO 00000KT 10SM OVC036 16/16 A3004 RMK AO2 SLP172 T01630163 10164 20142 52015

EXPIRED METARs :
  • 261111Z AUTO 00000KT 10SM FEW016 OVC031 16/16 A3003 RMK AO2 SLP168
  • 261056Z AUTO 00000KT 10SM SCT016 OVC029 16/16 A3002 RMK AO2 SLP164 T01620162
  • 261041Z AUTO 00000KT 5SM BR FEW006 BKN015 OVC025 16/16 A3002 RMK AO2 SLP164
  • 261026Z AUTO 21003KT 1 3/8SM BR BKN005 OVC018 16/16 A3002 RMK AO2 VIS 1/2V1 3/8 BKN V OVC SLP164
  • 260956Z AUTO 00000KT 3/8SM R18/2000V2200FT FG VV000 15/15 A3001 RMK AO2 SLP161 T01520152

TAF COR TAF KFTK
Valid from the 25 at 19:00 until the 27 at 01:00 UTC


251925Z 2519/2701 VRB05KT 9999 SCT040 BKN100 QNH2992INS
BECMG 2606/2607 VRB03KT 3200 BR SCT030 QNH2995INS
TEMPO 2609/2612 0800 FG
BECMG 2612/2613 20006KT 9999 NSW SCT040 QNH2999INS TX24/2519Z TN15/2611Z LAST NO AMDS AFT 2603 NEXT 2811
KZID FIR / North America



MET'MAP, your aeronautical weather chart ! - Copyright ORBIFLY December 2007 - Disclaimer

ORBIFLY MET'MAP TEAM :

Programming & Development : Alexandra Zaïnal
Concept & original design : Baudouin d'Aumeries
Assistance for programming : Marc-Olivier Méhu
Technical & hardware support : Manuel Goepfert

Contact : metmap@orbifly.com




SOURCES & CREDITS :

   NOAA       Earth
Advisory